Time;durP1;ratioP1;P1;durP2;ratioP2;P2;SDS_P1;SDS_P2;PMS_P1;PMS_P2;Temp;Humidity;BMP_temperature;BMP_pressure;BME280_temperature;BME280_humidity;BME280_pressure;Samples;Min_cycle;Max_cycle;Signal;HPM_P1;HPM_P2
2023/05/11 00:00:43;;;;;;;;;13.33;13.33;;;;;11.59;87.26;99693.19;6282680;20;2787837;-63
2023/05/11 00:03:11;;;;;;;;;16.00;15.00;;;;;11.22;88.39;99698.25;6310972;20;2491976;-63
2023/05/11 00:05:39;;;;;;;;;13.33;13.00;;;;;11.35;88.42;99699.19;6280338;20;2798224;-63
2023/05/11 00:08:08;;;;;;;;;16.00;16.00;;;;;11.45;88.02;99699.44;6313458;20;3569047;-63
2023/05/11 00:10:35;;;;;;;;;16.00;13.00;;;;;11.39;88.85;99700.69;6280998;20;2804848;-63
2023/05/11 00:13:03;;;;;;;;;18.67;16.67;;;;;11.54;88.13;99693.47;6282659;20;3562779;-63
2023/05/11 00:15:31;;;;;;;;;11.00;11.00;;;;;11.85;86.75;99700.38;6310379;20;3512791;-63
2023/05/11 00:17:59;;;;;;;;;17.00;13.33;;;;;11.96;85.30;99699.69;6312061;20;3535840;-63
2023/05/11 00:20:27;;;;;;;;;17.67;16.33;;;;;11.93;85.40;99689.16;6313949;20;3553470;-63
2023/05/11 00:22:56;;;;;;;;;17.00;13.67;;;;;11.69;86.38;99696.09;6281130;20;3541997;-63
2023/05/11 00:25:23;;;;;;;;;16.00;15.00;;;;;11.60;86.98;99697.59;6282110;20;2802333;-63
2023/05/11 00:27:51;;;;;;;;;16.00;16.00;;;;;11.62;85.83;99693.84;6283054;20;3543035;-63
2023/05/11 00:30:19;;;;;;;;;17.50;15.00;;;;;11.59;86.55;99691.34;6310303;20;2823246;-63
2023/05/11 00:32:50;;;;;;;;;24.00;23.67;;;;;11.35;87.94;99701.03;6284572;20;2845119;-63
2023/05/11 00:35:18;;;;;;;;;15.50;15.50;;;;;11.16;89.07;99683.41;6310327;20;2496172;-63
2023/05/11 00:37:46;;;;;;;;;13.33;11.00;;;;;11.33;89.65;99689.50;6280841;20;3513902;-63
2023/05/11 00:40:14;;;;;;;;;16.00;13.00;;;;;11.38;87.62;99682.84;6314061;20;2496216;-63
2023/05/11 00:42:42;;;;;;;;;12.67;12.67;;;;;11.32;88.69;99685.06;6280318;20;3517985;-63
2023/05/11 00:45:10;;;;;;;;;16.00;12.00;;;;;11.45;86.01;99677.94;6314288;20;2821277;-63
2023/05/11 00:47:38;;;;;;;;;12.67;11.00;;;;;11.41;85.39;99679.09;6281535;20;2792016;-63
2023/05/11 00:50:07;;;;;;;;;14.33;11.33;;;;;11.40;84.44;99675.56;6310997;20;2794606;-63
2023/05/11 00:52:35;;;;;;;;;12.50;10.50;;;;;11.25;85.08;99678.38;6318206;20;2786843;-57
2023/05/11 00:55:02;;;;;;;;;9.50;9.50;;;;;11.22;84.84;99671.38;6280617;20;2771169;-58
2023/05/11 00:57:34;;;;;;;;;12.60;8.00;;;;;11.09;86.27;99667.75;6307713;20;2769105;-55
2023/05/11 01:00:05;;;;;;;;;11.00;9.00;;;;;11.07;86.27;99667.84;6306703;20;2765887;-63
2023/05/11 01:02:35;;;;;;;;;10.80;10.00;;;;;11.35;84.15;99672.31;6305121;20;2798588;-63
2023/05/11 01:05:05;;;;;;;;;11.00;9.00;;;;;11.40;83.90;99669.28;6306747;20;2771234;-63
2023/05/11 01:07:47;;;;;;;;;15.33;13.00;;;;;11.18;85.21;99670.69;6277419;20;2799425;-62
2023/05/11 01:10:37;;;;;;;;;13.80;13.20;;;;;11.32;84.05;99666.25;6336161;20;2783591;-63
2023/05/11 01:13:31;;;;;;;;;17.00;10.67;;;;;11.20;83.69;99665.22;6283277;20;2800342;-63
2023/05/11 01:16:06;;;;;;;;;11.00;11.00;;;;;11.37;83.15;99669.50;6306989;20;2789606;-62
2023/05/11 01:18:49;;;;;;;;;10.40;10.40;;;;;11.47;82.00;99664.41;6303968;20;2791120;-63
2023/05/11 01:21:18;;;;;;;;;12.00;9.00;;;;;11.49;81.56;99663.34;6304626;20;2773148;-62
2023/05/11 01:24:22;;;;;;;;;12.00;11.00;;;;;11.34;82.53;99675.09;6281356;20;2677477;-64
2023/05/11 01:27:17;;;;;;;;;10.00;10.00;;;;;11.42;81.54;99675.44;6280070;20;2798248;-62
2023/05/11 01:30:25;;;;;;;;;12.00;11.00;;;;;11.46;80.09;99668.91;6280876;20;2791958;-63
2023/05/11 01:32:58;;;;;;;;;11.00;11.00;;;;;11.39;81.81;99667.59;6281444;20;2791936;-63
2023/05/11 01:35:28;;;;;;;;;12.00;12.00;;;;;11.47;80.61;99670.63;6277283;20;3514844;-63
2023/05/11 01:37:59;;;;;;;;;11.20;10.00;;;;;11.52;79.80;99665.81;6336504;20;2796120;-63
2023/05/11 01:40:31;;;;;;;;;8.00;8.00;;;;;11.47;79.47;99670.63;6278742;20;2746127;-63
2023/05/11 01:43:12;;;;;;;;;11.00;9.00;;;;;11.34;81.55;99665.19;6280496;20;2768975;-62
2023/05/11 01:45:45;;;;;;;;;9.00;9.00;;;;;11.25;82.77;99670.31;6284772;20;2750328;-62
2023/05/11 01:48:22;;;;;;;;;9.00;9.00;;;;;11.32;79.86;99664.44;6283834;20;2758683;-62
2023/05/11 01:50:51;;;;;;;;;9.50;8.00;;;;;11.50;79.48;99667.72;6276310;20;2767045;-62
2023/05/11 01:53:21;;;;;;;;;12.00;12.00;;;;;11.42;79.72;99667.38;6278779;20;2788795;-63
2023/05/11 01:55:51;;;;;;;;;9.50;9.00;;;;;11.37;80.44;99667.69;6307445;20;2754611;-63
2023/05/11 01:58:21;;;;;;;;;10.00;10.00;;;;;11.30;81.20;99662.81;6276226;20;2790463;-62
2023/05/11 02:00:48;;;;;;;;;9.50;8.00;;;;;11.39;81.39;99657.69;6311633;20;2751371;-63
2023/05/11 02:03:20;;;;;;;;;12.60;10.00;;;;;11.16;81.86;99667.28;6299252;20;2796251;-63
2023/05/11 02:05:51;;;;;;;;;12.00;9.60;;;;;11.02;83.07;99661.03;6300265;20;2781533;-63
2023/05/11 02:08:22;;;;;;;;;11.83;11.83;;;;;11.13;84.26;99664.75;6298892;20;2808778;-63
2023/05/11 02:10:52;;;;;;;;;13.00;13.00;;;;;11.13;84.72;99661.22;6303612;20;3528433;-63
2023/05/11 02:13:22;;;;;;;;;11.67;11.67;;;;;11.34;82.67;99661.66;6304622;20;2784397;-62
2023/05/11 02:15:55;;;;;;;;;8.50;6.50;;;;;11.16;82.37;99661.91;6309498;20;2737877;-63
2023/05/11 02:18:23;;;;;;;;;10.50;10.50;;;;;11.01;84.44;99652.13;6310262;20;2788875;-63
2023/05/11 02:20:53;;;;;;;;;12.40;10.60;;;;;11.12;84.40;99654.97;6301655;20;2791973;-63
2023/05/11 02:23:25;;;;;;;;;12.00;10.00;;;;;11.15;84.92;99659.28;6275000;20;2794331;-63
2023/05/11 02:25:53;;;;;;;;;14.00;11.50;;;;;10.91;85.25;99650.97;6308509;20;2785776;-63
2023/05/11 02:28:21;;;;;;;;;11.00;11.00;;;;;11.16;83.36;99656.53;6278015;20;2791018;-63
2023/05/11 02:30:54;;;;;;;;;10.00;10.00;;;;;10.96;84.33;99655.09;6278384;20;2783784;-63
2023/05/11 02:33:30;;;;;;;;;14.00;12.50;;;;;10.96;84.61;99659.63;6313520;20;2786876;-63
2023/05/11 02:36:02;;;;;;;;;10.80;10.80;;;;;11.15;83.49;99662.84;6300032;20;2753408;-63
2023/05/11 02:38:32;;;;;;;;;13.50;12.50;;;;;11.10;83.38;99659.56;6280846;20;2789912;-63
2023/05/11 02:41:07;;;;;;;;;12.33;11.00;;;;;10.85;85.38;99652.25;6280731;20;2792046;-63
2023/05/11 02:43:39;;;;;;;;;12.50;10.00;;;;;10.93;82.96;99657.13;6315869;20;2786737;-63
2023/05/11 02:46:16;;;;;;;;;14.20;11.60;;;;;10.53;84.09;99654.22;6305148;20;2794187;-63
2023/05/11 02:48:53;;;;;;;;;13.00;10.33;;;;;10.64;85.25;99659.81;6283148;20;2785856;-63
2023/05/11 02:51:30;;;;;;;;;14.00;13.00;;;;;10.56;85.51;99662.13;6316421;20;2793418;-53
2023/05/11 02:54:00;;;;;;;;;12.50;12.00;;;;;10.13;86.13;99659.31;6282894;20;2790012;-58
2023/05/11 02:56:29;;;;;;;;;13.00;13.00;;;;;10.12;87.41;99660.28;6280719;20;2789934;-63
2023/05/11 02:58:57;;;;;;;;;14.67;10.67;;;;;10.14;86.69;99660.19;6312062;20;3515907;-63
2023/05/11 03:01:25;;;;;;;;;14.00;11.00;;;;;10.04;86.83;99660.75;6312082;20;2790946;-59
2023/05/11 03:03:56;;;;;;;;;9.00;9.00;;;;;10.03;86.44;99658.13;6283337;20;2748191;-55
2023/05/11 03:06:25;;;;;;;;;7.00;6.20;;;;;9.93;86.75;99667.72;6305915;20;2737780;-58
2023/05/11 03:08:53;;;;;;;;;11.00;10.33;;;;;9.93;86.54;99657.00;6314857;20;3510710;-59
2023/05/11 03:11:21;;;;;;;;;12.50;12.00;;;;;9.99;85.60;99653.94;6317278;20;2802391;-57
2023/05/11 03:13:49;;;;;;;;;12.50;11.50;;;;;10.15;83.11;99659.25;6285804;20;2800282;-55
2023/05/11 03:16:17;;;;;;;;;11.00;10.00;;;;;9.96;84.89;99657.66;6285730;20;2776326;-55
2023/05/11 03:18:49;;;;;;;;;14.00;11.67;;;;;9.86;85.37;99654.66;6284978;20;2792128;-55
2023/05/11 03:21:22;;;;;;;;;11.00;11.00;;;;;9.91;84.22;99656.22;6312501;20;2792065;-58
2023/05/11 03:23:50;;;;;;;;;10.50;10.00;;;;;9.76;84.79;99661.50;6282384;20;2783671;-52
2023/05/11 03:26:20;;;;;;;;;12.00;11.00;;;;;9.66;85.40;99666.56;6284937;20;2790942;-56
2023/05/11 03:28:51;;;;;;;;;10.00;10.00;;;;;9.62;85.24;99669.50;6311873;20;2794026;-57
2023/05/11 03:31:19;;;;;;;;;12.67;10.00;;;;;9.70;85.04;99666.38;6282609;20;2790973;-54
2023/05/11 03:33:46;;;;;;;;;10.00;10.00;;;;;9.91;83.99;99662.44;6312669;20;2778439;-53
2023/05/11 03:36:15;;;;;;;;;12.00;10.00;;;;;9.86;83.92;99670.75;6281060;20;2782678;-54
2023/05/11 03:38:46;;;;;;;;;10.00;9.40;;;;;9.84;84.02;99667.28;6306568;20;2745074;-53
2023/05/11 03:41:16;;;;;;;;;12.00;11.00;;;;;9.72;85.57;99667.16;6282815;20;2802387;-54
2023/05/11 03:43:46;;;;;;;;;12.50;10.00;;;;;9.97;84.13;99675.47;6283605;20;2792084;-55
2023/05/11 03:46:20;;;;;;;;;12.00;9.00;;;;;10.19;84.32;99672.38;6280712;20;2762727;-53
2023/05/11 03:48:49;;;;;;;;;12.00;12.00;;;;;10.30;81.55;99675.31;6283656;20;2788812;-51
2023/05/11 03:51:17;;;;;;;;;8.00;8.00;;;;;10.20;81.52;99668.72;6284316;20;2744108;-55
2023/05/11 03:53:45;;;;;;;;;13.50;9.50;;;;;10.41;80.48;99668.44;6280630;20;2779493;-55
2023/05/11 03:56:12;;;;;;;;;16.00;11.00;;;;;10.55;78.76;99671.97;6285329;20;2677383;-57
2023/05/11 03:58:40;;;;;;;;;10.67;10.67;;;;;10.57;79.57;99671.88;6312408;20;2793232;-56
2023/05/11 04:01:08;;;;;;;;;5.00;5.00;;;;;10.57;77.69;99669.19;6318091;20;2737779;-55
2023/05/11 04:03:50;;;;;;;;;13.00;8.00;;;;;10.59;79.04;99682.53;6313307;20;2771205;-55
2023/05/11 04:06:20;;;;;;;;;8.80;8.80;;;;;10.79;78.87;99678.59;6309342;20;2754535;-55
2023/05/11 04:08:47;;;;;;;;;10.50;10.50;;;;;10.80;78.04;99683.03;6278012;20;2778402;-55
2023/05/11 04:11:15;;;;;;;;;13.50;12.50;;;;;10.86;77.27;99685.31;6282178;20;2792059;-55
2023/05/11 04:13:42;;;;;;;;;12.00;10.00;;;;;10.96;75.82;99686.47;6283359;20;2789996;-56
2023/05/11 04:16:09;;;;;;;;;7.00;6.00;;;;;11.04;76.09;99675.25;6286819;20;2743108;-56
2023/05/11 04:18:40;;;;;;;;;9.43;9.29;;;;;10.86;76.18;99682.63;6325731;20;1806302;-55
2023/05/11 04:21:09;;;;;;;;;10.80;8.80;;;;;11.06;76.04;99684.94;6338655;20;2781541;-55
2023/05/11 04:23:38;;;;;;;;;8.00;8.00;;;;;11.18;75.09;99696.72;6309401;20;2752433;-57
2023/05/11 04:26:06;;;;;;;;;10.00;8.50;;;;;10.98;75.44;99692.63;6281405;20;2765911;-56
2023/05/11 04:28:33;;;;;;;;;11.50;9.00;;;;;11.17;74.11;99698.53;6283922;20;2777412;-56
2023/05/11 04:31:00;;;;;;;;;13.00;10.00;;;;;11.24;74.68;99690.94;6279305;20;2781667;-54
2023/05/11 04:33:27;;;;;;;;;11.00;9.00;;;;;11.21;75.67;99694.69;6289346;20;2772163;-55
2023/05/11 04:35:55;;;;;;;;;9.00;8.00;;;;;11.33;75.15;99698.41;6286974;20;2752416;-55
2023/05/11 04:38:24;;;;;;;;;11.80;9.20;;;;;11.29;75.97;99704.09;6305712;20;2775253;-56
2023/05/11 04:40:51;;;;;;;;;9.00;9.00;;;;;11.49;75.56;99705.50;6279765;20;2749349;-57
2023/05/11 04:43:19;;;;;;;;;12.00;12.00;;;;;11.41;77.04;99703.31;6284409;20;2786787;-57
2023/05/11 04:45:51;;;;;;;;;10.00;7.20;;;;;11.59;75.86;99707.47;6307865;20;2769919;-58
2023/05/11 04:48:18;;;;;;;;;12.00;10.00;;;;;11.53;76.30;99701.63;6280230;20;2791271;-55
2023/05/11 04:50:48;;;;;;;;;11.20;10.20;;;;;11.67;75.92;99706.13;6305984;20;2794029;-56
2023/05/11 04:53:16;;;;;;;;;10.67;10.67;;;;;11.92;75.14;99713.44;6280985;20;2794119;-57
2023/05/11 04:55:44;;;;;;;;;9.50;9.00;;;;;11.89;74.36;99709.13;6315912;20;2755538;-54
2023/05/11 04:58:11;;;;;;;;;8.50;8.50;;;;;11.86;75.29;99717.41;6288308;20;2752362;-53
2023/05/11 05:00:40;;;;;;;;;14.40;11.40;;;;;11.81;74.84;99716.81;6302714;20;2800416;-54
2023/05/11 05:03:08;;;;;;;;;18.00;14.67;;;;;11.92;74.32;99719.69;6281805;20;3543971;-54
2023/05/11 05:05:36;;;;;;;;;12.00;12.00;;;;;11.94;73.43;99715.06;6305494;20;2793021;-56
2023/05/11 05:08:03;;;;;;;;;14.00;10.50;;;;;11.86;72.75;99720.09;6281901;20;2796120;-54
2023/05/11 05:10:30;;;;;;;;;11.50;9.00;;;;;11.70;73.80;99720.22;6280767;20;2769162;-56
2023/05/11 05:12:58;;;;;;;;;14.00;11.00;;;;;11.91;73.06;99717.97;6282755;20;2793135;-54
2023/05/11 05:15:25;;;;;;;;;14.50;14.50;;;;;11.79;73.48;99719.59;6286938;20;2798233;-55
2023/05/11 05:17:53;;;;;;;;;11.00;11.00;;;;;11.76;73.60;99727.03;6281465;20;3518081;-55
2023/05/11 05:20:21;;;;;;;;;10.00;10.00;;;;;11.76;74.21;99719.81;6318703;20;2777484;-56
2023/05/11 05:22:49;;;;;;;;;12.67;10.00;;;;;11.88;73.59;99722.72;6284311;20;2796093;-53
2023/05/11 05:25:17;;;;;;;;;13.33;10.67;;;;;11.91;72.79;99734.13;6312391;20;2788860;-53
2023/05/11 05:27:45;;;;;;;;;13.00;11.00;;;;;11.91;72.39;99728.72;6311804;20;3517997;-55
2023/05/11 05:30:12;;;;;;;;;9.00;9.00;;;;;12.07;72.41;99731.25;6312449;20;2741933;-58
2023/05/11 05:32:40;;;;;;;;;11.33;11.00;;;;;12.13;72.47;99728.16;6280878;20;2788927;-55
2023/05/11 05:35:08;;;;;;;;;12.50;11.00;;;;;12.10;72.27;99724.81;6311740;20;2788835;-53
2023/05/11 05:37:36;;;;;;;;;10.50;10.00;;;;;12.16;71.39;99724.38;6285172;20;2791999;-55
2023/05/11 05:40:05;;;;;;;;;9.00;9.00;;;;;12.18;73.13;99727.84;6281414;20;2755561;-55
2023/05/11 05:42:33;;;;;;;;;12.00;12.00;;;;;12.24;72.06;99724.72;6284366;20;2791032;-54
2023/05/11 05:45:01;;;;;;;;;11.67;10.67;;;;;12.28;72.35;99737.03;6312254;20;2798325;-55
2023/05/11 05:47:29;;;;;;;;;10.00;10.00;;;;;12.42;73.40;99733.38;6314461;20;2783700;-55
2023/05/11 05:49:57;;;;;;;;;11.00;9.00;;;;;12.44;71.78;99726.06;6283740;20;2773313;-57
2023/05/11 05:52:24;;;;;;;;;9.50;9.50;;;;;12.59;71.24;99735.81;6314543;20;2769101;-56
2023/05/11 05:54:52;;;;;;;;;12.00;9.50;;;;;12.35;70.76;99730.28;6281730;20;2785685;-54
2023/05/11 05:57:19;;;;;;;;;15.00;12.00;;;;;12.63;69.68;99745.38;6281024;20;2784648;-57
2023/05/11 05:59:47;;;;;;;;;14.00;12.50;;;;;12.54;68.99;99737.09;6283269;20;2799238;-57
2023/05/11 06:02:15;;;;;;;;;12.00;11.00;;;;;12.55;68.96;99738.81;6275232;20;2794180;-57
2023/05/11 06:04:42;;;;;;;;;13.50;12.00;;;;;12.79;69.00;99737.09;6316137;20;2795142;-57
2023/05/11 06:07:12;;;;;;;;;13.00;13.00;;;;;12.80;68.43;99740.66;6278761;20;2797268;-57
2023/05/11 06:09:40;;;;;;;;;11.00;11.00;;;;;12.69;68.96;99741.38;6291027;20;2800435;-58
2023/05/11 06:12:09;;;;;;;;;12.80;11.60;;;;;12.78;68.57;99740.75;6298121;20;2786813;-54
2023/05/11 06:14:36;;;;;;;;;8.50;8.50;;;;;12.91;67.61;99738.06;6280440;20;2749671;-56
2023/05/11 06:17:05;;;;;;;;;12.67;12.67;;;;;13.14;69.15;99742.69;6282772;20;3529596;-58
2023/05/11 06:19:32;;;;;;;;;12.00;12.00;;;;;13.30;67.85;99747.03;6283790;20;2804544;-53
2023/05/11 06:22:00;;;;;;;;;21.50;21.00;;;;;13.45;67.41;99745.91;6285865;20;2846515;-53
2023/05/11 06:24:31;;;;;;;;;15.00;14.00;;;;;13.36;67.13;99744.75;6286253;20;3527354;-55
2023/05/11 06:26:59;;;;;;;;;18.00;16.00;;;;;13.16;67.97;99746.16;6315786;20;2825377;-55
2023/05/11 06:29:27;;;;;;;;;15.00;14.00;;;;;13.51;67.07;99744.63;6284623;20;3532580;-56
2023/05/11 06:31:55;;;;;;;;;15.00;13.00;;;;;14.01;65.70;99750.81;6314331;20;3539999;-53
2023/05/11 06:34:23;;;;;;;;;13.67;13.33;;;;;14.56;62.42;99746.66;6283089;20;3535771;-57
2023/05/11 06:36:51;;;;;;;;;9.50;9.50;;;;;14.73;62.30;99748.03;6288607;20;2773180;-62
2023/05/11 06:39:19;;;;;;;;;13.67;12.00;;;;;15.64;59.55;99746.22;6284642;20;2788921;-58
2023/05/11 06:41:51;;;;;;;;;10.00;10.00;;;;;15.99;58.63;99748.78;6315807;20;3510680;-58
2023/05/11 06:44:21;;;;;;;;;6.50;6.50;;;;;15.87;56.47;99744.34;6320384;20;2746230;-58
2023/05/11 06:46:49;;;;;;;;;11.33;11.33;;;;;16.53;55.98;99753.22;6286410;20;2795280;-54
2023/05/11 06:49:16;;;;;;;;;10.00;10.00;;;;;17.19;55.36;99746.66;6318993;20;2791995;-58
2023/05/11 06:51:45;;;;;;;;;12.00;10.60;;;;;17.64;52.37;99747.16;6309255;20;2792037;-58
2023/05/11 06:54:13;;;;;;;;;10.67;10.67;;;;;17.93;51.63;99741.84;6285512;20;3511755;-59
2023/05/11 06:56:44;;;;;;;;;9.29;9.29;;;;;17.94;51.06;99743.53;6353462;20;3492991;-60
2023/05/11 06:59:11;;;;;;;;;11.00;10.00;;;;;17.84;51.35;99744.53;6320915;20;2790079;-59
2023/05/11 07:01:39;;;;;;;;;11.00;10.00;;;;;18.38;50.21;99740.44;6286924;20;2789022;-55
2023/05/11 07:04:06;;;;;;;;;9.00;9.00;;;;;18.36;49.31;99742.44;6293956;20;2760730;-58
2023/05/11 07:06:35;;;;;;;;;10.40;10.00;;;;;17.94;49.11;99742.69;6310521;20;2794091;-58
2023/05/11 07:09:02;;;;;;;;;12.00;10.50;;;;;17.59;50.59;99738.56;6292285;20;2792005;-58
2023/05/11 07:11:31;;;;;;;;;12.00;10.33;;;;;18.01;50.69;99738.41;6278293;20;3510790;-58
2023/05/11 07:13:59;;;;;;;;;13.00;13.00;;;;;17.88;51.42;99737.81;6315144;20;3535691;-56
2023/05/11 07:16:27;;;;;;;;;11.67;11.00;;;;;18.80;49.65;99734.69;6282715;20;2794118;-58
2023/05/11 07:18:55;;;;;;;;;14.33;13.33;;;;;19.06;48.24;99743.06;6317570;20;2800311;-58
2023/05/11 07:21:22;;;;;;;;;15.00;14.00;;;;;19.00;49.47;99739.09;6298188;20;2487792;-59
2023/05/11 07:23:51;;;;;;;;;14.67;14.67;;;;;19.11;47.46;99742.63;6284203;20;3536845;-58
2023/05/11 07:26:20;;;;;;;;;15.00;15.00;;;;;19.33;47.41;99736.84;6280564;20;2684723;-58
2023/05/11 07:28:49;;;;;;;;;12.00;12.00;;;;;19.86;46.97;99744.34;6313596;20;3538826;-60
2023/05/11 07:31:16;;;;;;;;;14.00;14.00;;;;;19.39;46.33;99743.56;6285937;20;2489999;-58
2023/05/11 07:33:44;;;;;;;;;14.00;13.00;;;;;19.38;47.76;99745.41;6283300;20;3531628;-54
2023/05/11 07:36:12;;;;;;;;;14.33;12.67;;;;;20.25;46.15;99743.19;6281337;20;3524656;-58
2023/05/11 07:38:40;;;;;;;;;10.00;10.00;;;;;19.78;46.78;99744.25;6288320;20;2778424;-58
2023/05/11 07:41:08;;;;;;;;;12.00;11.00;;;;;19.87;46.70;99743.31;6280815;20;2786796;-56
2023/05/11 07:43:38;;;;;;;;;12.00;10.00;;;;;19.99;46.61;99737.69;6316759;20;2789874;-57
2023/05/11 07:46:06;;;;;;;;;8.67;8.67;;;;;19.59;46.35;99741.56;6273868;20;3473297;-56
2023/05/11 07:48:34;;;;;;;;;9.00;9.00;;;;;20.00;45.55;99733.94;6311775;20;2766956;-58
2023/05/11 07:51:02;;;;;;;;;12.50;11.50;;;;;20.10;45.65;99734.72;6284640;20;2789867;-58
2023/05/11 07:53:30;;;;;;;;;11.67;11.00;;;;;19.88;47.80;99736.00;6280132;20;3517972;-58
2023/05/11 07:55:59;;;;;;;;;12.33;10.67;;;;;20.58;46.27;99736.22;6313301;20;3513829;-57
2023/05/11 07:58:27;;;;;;;;;11.00;11.00;;;;;20.05;45.76;99731.59;6282057;20;3519125;-57
2023/05/11 08:00:55;;;;;;;;;11.00;11.00;;;;;20.45;46.29;99739.31;6279783;20;2783811;-57
2023/05/11 08:03:23;;;;;;;;;9.50;8.00;;;;;20.68;46.56;99734.25;6284760;20;2758615;-57
2023/05/11 08:05:52;;;;;;;;;10.80;9.20;;;;;20.61;46.56;99738.63;6304854;20;2785702;-58
2023/05/11 08:08:20;;;;;;;;;8.00;8.00;;;;;20.63;46.08;99731.16;6266063;20;3464893;-58
2023/05/11 08:10:47;;;;;;;;;8.00;8.00;;;;;21.17;43.45;99733.72;6188063;20;2850881;-59
2023/05/11 08:13:15;;;;;;;;;8.33;8.33;;;;;21.18;43.34;99730.84;6320737;20;2748199;-63
2023/05/11 08:15:44;;;;;;;;;9.00;9.00;;;;;21.01;44.24;99735.38;6318536;20;2748221;-63
2023/05/11 08:18:13;;;;;;;;;6.80;6.00;;;;;20.37;41.50;99729.19;6343148;20;2746280;-65
2023/05/11 08:20:42;;;;;;;;;8.00;8.00;;;;;20.59;43.20;99729.78;6339219;20;2752363;-63
2023/05/11 08:23:16;;;;;;;;;9.00;9.00;;;;;20.51;42.15;99726.91;6307843;20;2747167;-66
2023/05/11 08:25:53;;;;;;;;;6.00;6.00;;;;;20.80;42.14;99718.47;6309489;20;2739454;-65
2023/05/11 08:28:22;;;;;;;;;4.80;4.80;;;;;21.27;41.35;99724.44;6341335;20;2740932;-66
2023/05/11 08:30:58;;;;;;;;;5.67;5.67;;;;;21.29;38.84;99723.41;6317829;20;2740943;-63
2023/05/11 08:33:27;;;;;;;;;5.40;5.40;;;;;21.13;38.88;99727.75;6339775;20;2736905;-64
2023/05/11 08:35:59;;;;;;;;;5.00;4.00;;;;;20.47;37.07;99720.06;6342442;20;2745095;-64
2023/05/11 08:38:28;;;;;;;;;4.60;4.60;;;;;20.68;38.93;99723.34;6339828;20;2748256;-64
2023/05/11 08:40:57;;;;;;;;;6.00;6.00;;;;;20.97;38.46;99723.03;6312705;20;2740958;-64
2023/05/11 08:43:28;;;;;;;;;7.00;7.00;;;;;20.94;37.39;99715.19;6343285;20;2732657;-63
2023/05/11 08:46:03;;;;;;;;;8.40;7.00;;;;;21.04;37.81;99710.47;6339641;20;2741077;-64
2023/05/11 08:48:31;;;;;;;;;5.00;5.00;;;;;20.99;38.11;99707.38;6302585;20;2756604;-63
2023/05/11 08:51:03;;;;;;;;;6.40;6.40;;;;;21.67;37.95;99712.00;6340451;20;2746124;-63
2023/05/11 08:53:32;;;;;;;;;8.80;6.00;;;;;21.17;39.70;99709.16;6341288;20;2741445;-63
2023/05/11 08:56:05;;;;;;;;;4.00;4.00;;;;;21.08;38.56;99704.69;6330511;20;2756575;-64
2023/05/11 08:58:36;;;;;;;;;5.80;5.80;;;;;21.58;39.01;99710.25;6340468;20;2737796;-64
2023/05/11 09:01:06;;;;;;;;;6.20;6.20;;;;;21.73;39.84;99713.22;6337439;20;2738895;-66
2023/05/11 09:03:36;;;;;;;;;6.80;6.80;;;;;21.64;39.00;99704.16;6338792;20;2739859;-65
2023/05/11 09:06:07;;;;;;;;;6.00;6.00;;;;;21.43;38.67;99701.84;6283764;20;2745153;-65
2023/05/11 09:08:37;;;;;;;;;7.00;5.80;;;;;21.95;38.86;99706.25;6336403;20;2738994;-65
2023/05/11 09:11:06;;;;;;;;;6.80;6.00;;;;;21.90;37.64;99703.16;6335224;20;2745134;-66
2023/05/11 09:13:34;;;;;;;;;9.00;6.67;;;;;22.00;38.24;99695.69;6278166;20;2753439;-64
2023/05/11 09:16:02;;;;;;;;;4.00;4.00;;;;;21.88;38.30;99697.88;6312035;20;2744195;-66
2023/05/11 09:18:32;;;;;;;;;5.75;4.00;;;;;21.94;38.69;99699.09;6345380;20;2732694;-66
2023/05/11 09:21:02;;;;;;;;;5.60;5.60;;;;;21.95;38.16;99703.53;6307601;20;2738924;-66
2023/05/11 09:23:31;;;;;;;;;1.67;1.67;;;;;21.40;38.33;99701.28;6315277;20;2748226;-66
2023/05/11 09:26:00;;;;;;;;;5.40;4.80;;;;;21.54;37.27;99697.97;6332398;20;2741951;-66
2023/05/11 09:28:28;;;;;;;;;4.00;4.00;;;;;20.88;38.80;99694.00;6316635;20;2749313;-65
2023/05/11 09:31:02;;;;;;;;;8.33;7.00;;;;;21.52;39.40;99690.94;6316791;20;2742980;-66
2023/05/11 09:33:31;;;;;;;;;7.67;5.67;;;;;21.45;38.15;99685.28;6322439;20;2748221;-66
2023/05/11 09:36:01;;;;;;;;;5.60;5.60;;;;;21.39;38.61;99688.66;6339415;20;2739947;-66
2023/05/11 09:38:31;;;;;;;;;7.60;7.60;;;;;21.36;40.09;99683.50;6340898;20;2737797;-66
2023/05/11 09:41:02;;;;;;;;;7.00;7.00;;;;;21.74;38.03;99682.13;6340991;20;2734032;-66
2023/05/11 09:43:31;;;;;;;;;5.60;5.60;;;;;21.37;37.72;99679.75;6338190;20;2743025;-65
2023/05/11 09:46:05;;;;;;;;;8.40;7.00;;;;;21.19;37.80;99688.88;6338634;20;2743006;-66
2023/05/11 09:48:35;;;;;;;;;4.40;4.40;;;;;21.21;37.69;99681.38;6335864;20;2723190;-66
2023/05/11 09:51:12;;;;;;;;;5.80;5.80;;;;;20.68;39.04;99668.78;6339837;20;2736803;-67
2023/05/11 09:53:44;;;;;;;;;7.00;7.00;;;;;;;;6338238;20;2745095;-67
2023/05/11 09:56:14;;;;;;;;;7.00;7.00;;;;;21.16;38.50;99667.34;6313906;20;2730517;-67
2023/05/11 09:58:57;;;;;;;;;6.00;6.00;;;;;20.87;39.58;99672.31;6340539;20;2741457;-66
2023/05/11 10:01:33;;;;;;;;;3.80;3.80;;;;;20.94;40.02;99667.94;6340555;20;2734685;-66
2023/05/11 10:04:03;;;;;;;;;9.00;9.00;;;;;21.94;37.58;99658.09;6320262;20;2737814;-67
2023/05/11 10:06:52;;;;;;;;;4.00;4.00;;;;;22.21;33.17;99667.03;6308007;20;2746180;-67
2023/05/11 10:09:27;;;;;;;;;5.40;5.40;;;;;22.66;34.93;99660.19;6338049;20;2739890;-67
2023/05/11 10:11:56;;;;;;;;;5.60;5.00;;;;;22.38;34.80;99667.88;6336066;20;2744025;-66
2023/05/11 10:14:28;;;;;;;;;5.60;4.80;;;;;22.03;35.06;99653.47;6306183;20;2735711;-66
2023/05/11 10:16:57;;;;;;;;;5.40;5.40;;;;;21.38;35.75;99638.66;6332629;20;2738910;-67
2023/05/11 10:19:26;;;;;;;;;7.00;5.40;;;;;21.91;36.77;99650.22;6338264;20;2739919;-64
2023/05/11 10:21:56;;;;;;;;;6.40;5.60;;;;;22.26;35.92;99643.63;6338084;20;2734039;-63
2023/05/11 10:24:26;;;;;;;;;5.20;5.20;;;;;21.97;34.61;99646.81;6336955;20;2737929;-64
2023/05/11 10:26:57;;;;;;;;;5.40;4.20;;;;;22.20;35.67;99643.47;6338532;20;2748324;-64
2023/05/11 10:29:29;;;;;;;;;5.57;4.86;;;;;22.28;35.20;99643.47;6325686;20;3461786;-64
2023/05/11 10:31:59;;;;;;;;;5.60;5.60;;;;;22.45;34.57;99650.63;6336064;20;2745109;-65
2023/05/11 10:34:28;;;;;;;;;5.00;4.00;;;;;21.92;34.30;99638.25;6303024;20;2736896;-65
2023/05/11 10:37:00;;;;;;;;;4.60;4.60;;;;;22.88;34.18;99637.56;6334316;20;2748223;-64
2023/05/11 10:39:29;;;;;;;;;3.60;3.60;;;;;22.43;34.01;99638.97;6306808;20;2753431;-63
2023/05/11 10:42:15;;;;;;;;;5.80;5.00;;;;;21.93;35.20;99645.44;6306423;20;2743049;-64
2023/05/11 10:45:16;;;;;;;;;5.40;5.40;;;;;21.80;34.66;99631.41;6339699;20;2745071;-66
2023/05/11 10:48:06;;;;;;;;;2.80;2.80;;;;;21.88;35.40;99628.66;6307871;20;2746214;-63
2023/05/11 10:51:04;;;;;;;;;5.20;4.80;;;;;22.39;34.90;99626.69;6334313;20;2738843;-64
2023/05/11 10:53:49;;;;;;;;;5.33;4.67;;;;;20.92;37.27;99610.75;6316426;20;2739861;-65
2023/05/11 10:57:10;;;;;;;;;4.80;4.80;;;;;21.10;36.82;99613.41;6333036;20;2732737;-64
2023/05/11 11:00:13;;;;;;;;;6.00;5.60;;;;;21.59;36.18;99618.19;6330348;20;2739998;-63
2023/05/11 11:02:44;;;;;;;;;7.20;6.60;;;;;21.72;36.53;99610.38;6340257;20;2746155;-64
2023/05/11 11:05:16;;;;;;;;;6.00;5.00;;;;;21.26;35.72;99618.94;6341895;20;2748226;-63
2023/05/11 11:08:06;;;;;;;;;6.00;4.00;;;;;21.64;35.20;99604.88;6289436;20;2746121;-64
2023/05/11 11:10:44;;;;;;;;;7.00;7.00;;;;;21.66;35.34;99606.44;6341712;20;2735688;-63
2023/05/11 11:13:16;;;;;;;;;3.40;3.40;;;;;22.21;35.97;99615.06;6338045;20;2737774;-63
2023/05/11 11:15:57;;;;;;;;;6.00;6.00;;;;;22.06;35.60;99612.97;6341815;20;2735729;-64
2023/05/11 11:18:28;;;;;;;;;7.40;6.80;;;;;21.90;36.69;99604.75;6344423;20;2731640;-62
2023/05/11 11:20:57;;;;;;;;;6.00;6.00;;;;;21.07;38.22;99591.91;6322460;20;2740899;-63
2023/05/11 11:23:38;;;;;;;;;6.00;6.00;;;;;22.07;36.05;99591.97;6342206;20;2734681;-62
2023/05/11 11:26:10;;;;;;;;;5.40;5.40;;;;;21.88;34.67;99606.81;6344553;20;2734704;-61